sensor_id;sensor_type;location;lat;lon;timestamp;pressure;altitude;pressure_sealevel;temperature;humidity
76998;BME280;65930;48.874;10.734;2023-03-04T00:00:07;96414.25;;;0.84;72.19
76998;BME280;65930;48.874;10.734;2023-03-04T00:02:35;96418.75;;;0.80;72.36
76998;BME280;65930;48.874;10.734;2023-03-04T00:05:04;96410.78;;;0.66;73.18
76998;BME280;65930;48.874;10.734;2023-03-04T00:07:33;96410.84;;;0.58;73.28
76998;BME280;65930;48.874;10.734;2023-03-04T00:10:01;96416.03;;;0.51;73.05
76998;BME280;65930;48.874;10.734;2023-03-04T00:12:29;96416.63;;;0.56;73.08
76998;BME280;65930;48.874;10.734;2023-03-04T00:14:57;96414.25;;;0.55;73.27
76998;BME280;65930;48.874;10.734;2023-03-04T00:17:25;96419.03;;;0.58;73.42
76998;BME280;65930;48.874;10.734;2023-03-04T00:19:55;96412.50;;;0.50;73.65
76998;BME280;65930;48.874;10.734;2023-03-04T00:22:23;96422.28;;;0.51;73.73
76998;BME280;65930;48.874;10.734;2023-03-04T00:24:52;96417.75;;;0.55;73.15
76998;BME280;65930;48.874;10.734;2023-03-04T00:27:20;96413.13;;;0.47;73.71
76998;BME280;65930;48.874;10.734;2023-03-04T00:29:48;96402.22;;;0.47;73.10
76998;BME280;65930;48.874;10.734;2023-03-04T00:32:16;96415.66;;;0.52;73.35
76998;BME280;65930;48.874;10.734;2023-03-04T00:34:44;96416.63;;;0.56;73.54
76998;BME280;65930;48.874;10.734;2023-03-04T00:37:13;96418.22;;;0.57;73.14
76998;BME280;65930;48.874;10.734;2023-03-04T00:39:41;96417.41;;;0.57;73.36
76998;BME280;65930;48.874;10.734;2023-03-04T00:42:10;96421.13;;;0.52;73.00
76998;BME280;65930;48.874;10.734;2023-03-04T00:44:38;96423.56;;;0.45;73.77
76998;BME280;65930;48.874;10.734;2023-03-04T00:47:06;96419.88;;;0.50;72.70
76998;BME280;65930;48.874;10.734;2023-03-04T00:49:34;96413.81;;;0.35;73.31
76998;BME280;65930;48.874;10.734;2023-03-04T00:52:03;96414.16;;;0.34;74.30
76998;BME280;65930;48.874;10.734;2023-03-04T00:54:31;96392.88;;;0.27;74.66
76998;BME280;65930;48.874;10.734;2023-03-04T00:56:59;96391.41;;;0.30;73.74
76998;BME280;65930;48.874;10.734;2023-03-04T00:59:28;96401.50;;;0.29;74.63
76998;BME280;65930;48.874;10.734;2023-03-04T01:01:56;96400.34;;;0.39;74.29
76998;BME280;65930;48.874;10.734;2023-03-04T01:04:24;96390.56;;;0.47;74.13
76998;BME280;65930;48.874;10.734;2023-03-04T01:06:52;96389.25;;;0.44;73.89
76998;BME280;65930;48.874;10.734;2023-03-04T01:09:20;96389.44;;;0.39;74.30
76998;BME280;65930;48.874;10.734;2023-03-04T01:11:48;96390.09;;;0.36;74.22
76998;BME280;65930;48.874;10.734;2023-03-04T01:14:16;96382.38;;;0.38;74.73
76998;BME280;65930;48.874;10.734;2023-03-04T01:16:45;96382.38;;;0.38;74.21
76998;BME280;65930;48.874;10.734;2023-03-04T01:19:13;96383.72;;;0.32;73.97
76998;BME280;65930;48.874;10.734;2023-03-04T01:21:41;96392.84;;;0.36;74.61
76998;BME280;65930;48.874;10.734;2023-03-04T01:24:09;96385.59;;;0.40;73.84
76998;BME280;65930;48.874;10.734;2023-03-04T01:26:37;96383.72;;;0.32;73.95
76998;BME280;65930;48.874;10.734;2023-03-04T01:29:05;96384.03;;;0.30;74.30
76998;BME280;65930;48.874;10.734;2023-03-04T01:31:33;96385.31;;;0.24;74.35
76998;BME280;65930;48.874;10.734;2023-03-04T01:34:02;96383.25;;;0.21;74.87
76998;BME280;65930;48.874;10.734;2023-03-04T01:36:30;96379.56;;;0.26;74.62
76998;BME280;65930;48.874;10.734;2023-03-04T01:38:58;96380.81;;;0.28;74.88
76998;BME280;65930;48.874;10.734;2023-03-04T01:41:26;96377.78;;;0.30;74.02
76998;BME280;65930;48.874;10.734;2023-03-04T01:43:57;96380.03;;;0.28;74.11
76998;BME280;65930;48.874;10.734;2023-03-04T01:46:26;96373.44;;;0.29;73.96
76998;BME280;65930;48.874;10.734;2023-03-04T01:48:55;96370.28;;;0.27;73.74
76998;BME280;65930;48.874;10.734;2023-03-04T01:51:26;96366.25;;;0.24;74.40
76998;BME280;65930;48.874;10.734;2023-03-04T01:53:54;96366.91;;;0.21;74.86
76998;BME280;65930;48.874;10.734;2023-03-04T01:56:25;96371.06;;;0.19;75.15
76998;BME280;65930;48.874;10.734;2023-03-04T01:59:12;96370.75;;;0.20;74.63
76998;BME280;65930;48.874;10.734;2023-03-04T02:01:43;96363.13;;;0.14;74.73
76998;BME280;65930;48.874;10.734;2023-03-04T02:04:13;96364.06;;;0.18;74.41
76998;BME280;65930;48.874;10.734;2023-03-04T02:06:46;96363.13;;;0.14;75.34
76998;BME280;65930;48.874;10.734;2023-03-04T02:09:15;96365.53;;;0.07;75.04
76998;BME280;65930;48.874;10.734;2023-03-04T02:11:45;96375.78;;;0.01;74.88
76998;BME280;65930;48.874;10.734;2023-03-04T02:14:16;96367.34;;;-0.06;75.19
76998;BME280;65930;48.874;10.734;2023-03-04T02:16:45;96368.25;;;0.07;75.29
76998;BME280;65930;48.874;10.734;2023-03-04T02:19:21;96348.25;;;0.03;74.47
76998;BME280;65930;48.874;10.734;2023-03-04T02:21:55;96334.53;;;-0.10;74.90
76998;BME280;65930;48.874;10.734;2023-03-04T02:24:29;96342.69;;;-0.10;75.17
76998;BME280;65930;48.874;10.734;2023-03-04T02:27:01;96335.19;;;-0.30;74.67
76998;BME280;65930;48.874;10.734;2023-03-04T02:29:29;96340.94;;;-0.23;74.66
76998;BME280;65930;48.874;10.734;2023-03-04T02:31:57;96350.44;;;-0.37;74.77
76998;BME280;65930;48.874;10.734;2023-03-04T02:34:29;96362.91;;;-0.36;75.93
76998;BME280;65930;48.874;10.734;2023-03-04T02:36:59;96360.97;;;-0.27;75.23
76998;BME280;65930;48.874;10.734;2023-03-04T02:39:31;96355.53;;;-0.36;75.35
76998;BME280;65930;48.874;10.734;2023-03-04T02:42:02;96342.59;;;-0.39;75.22
76998;BME280;65930;48.874;10.734;2023-03-04T02:44:33;96342.31;;;-0.63;76.19
76998;BME280;65930;48.874;10.734;2023-03-04T02:47:03;96359.41;;;-0.54;75.72
76998;BME280;65930;48.874;10.734;2023-03-04T02:49:33;96362.94;;;-0.54;75.42
76998;BME280;65930;48.874;10.734;2023-03-04T02:52:05;96376.53;;;-0.45;75.56
76998;BME280;65930;48.874;10.734;2023-03-04T02:54:36;96368.88;;;-0.52;75.28
76998;BME280;65930;48.874;10.734;2023-03-04T02:57:09;96366.78;;;-0.55;76.36
76998;BME280;65930;48.874;10.734;2023-03-04T02:59:39;96359.25;;;-0.58;75.97
76998;BME280;65930;48.874;10.734;2023-03-04T03:02:07;96358.63;;;-0.55;75.54
76998;BME280;65930;48.874;10.734;2023-03-04T03:04:37;96362.28;;;-0.51;75.61
76998;BME280;65930;48.874;10.734;2023-03-04T03:07:06;96363.56;;;-0.48;75.30
76998;BME280;65930;48.874;10.734;2023-03-04T03:09:34;96351.88;;;-0.40;75.61
76998;BME280;65930;48.874;10.734;2023-03-04T03:12:02;96357.97;;;-0.43;74.50
76998;BME280;65930;48.874;10.734;2023-03-04T03:14:31;96364.03;;;-0.46;75.03
76998;BME280;65930;48.874;10.734;2023-03-04T03:16:59;96364.41;;;-0.56;75.18
76998;BME280;65930;48.874;10.734;2023-03-04T03:19:27;96362.63;;;-0.61;76.15
76998;BME280;65930;48.874;10.734;2023-03-04T03:21:55;96351.44;;;-0.76;75.58
76998;BME280;65930;48.874;10.734;2023-03-04T03:24:23;96367.44;;;-0.75;75.88
76998;BME280;65930;48.874;10.734;2023-03-04T03:26:51;96367.91;;;-0.81;76.65
76998;BME280;65930;48.874;10.734;2023-03-04T03:29:20;96338.63;;;-0.93;76.20
76998;BME280;65930;48.874;10.734;2023-03-04T03:31:55;96336.88;;;-0.89;76.09
76998;BME280;65930;48.874;10.734;2023-03-04T03:34:26;96335.13;;;-0.85;76.35
76998;BME280;65930;48.874;10.734;2023-03-04T03:36:54;96339.75;;;-0.85;76.25
76998;BME280;65930;48.874;10.734;2023-03-04T03:39:26;96341.22;;;-0.79;76.02
76998;BME280;65930;48.874;10.734;2023-03-04T03:41:57;96349.00;;;-0.69;75.10
76998;BME280;65930;48.874;10.734;2023-03-04T03:44:25;96349.69;;;-0.90;75.35
76998;BME280;65930;48.874;10.734;2023-03-04T03:46:57;96351.59;;;-0.81;75.13
76998;BME280;65930;48.874;10.734;2023-03-04T03:49:27;96336.25;;;-0.95;76.09
76998;BME280;65930;48.874;10.734;2023-03-04T03:51:55;96340.72;;;-0.99;76.64
76998;BME280;65930;48.874;10.734;2023-03-04T03:54:23;96328.56;;;-1.10;76.13
76998;BME280;65930;48.874;10.734;2023-03-04T03:56:52;96320.88;;;-1.08;76.40
76998;BME280;65930;48.874;10.734;2023-03-04T03:59:20;96343.44;;;-0.90;75.96
76998;BME280;65930;48.874;10.734;2023-03-04T04:01:50;96357.69;;;-0.84;76.12
76998;BME280;65930;48.874;10.734;2023-03-04T04:04:20;96333.84;;;-1.05;75.68
76998;BME280;65930;48.874;10.734;2023-03-04T04:06:48;96345.50;;;-0.96;74.99
76998;BME280;65930;48.874;10.734;2023-03-04T04:09:18;96336.84;;;-0.98;74.81
76998;BME280;65930;48.874;10.734;2023-03-04T04:11:48;96346.97;;;-0.98;75.30
76998;BME280;65930;48.874;10.734;2023-03-04T04:14:16;96353.38;;;-0.94;74.85
76998;BME280;65930;48.874;10.734;2023-03-04T04:16:49;96343.91;;;-1.05;75.19
76998;BME280;65930;48.874;10.734;2023-03-04T04:19:19;96334.63;;;-1.13;75.15
76998;BME280;65930;48.874;10.734;2023-03-04T04:21:51;96337.16;;;-1.25;75.50
76998;BME280;65930;48.874;10.734;2023-03-04T04:24:20;96348.53;;;-1.14;75.76
76998;BME280;65930;48.874;10.734;2023-03-04T04:26:48;96342.47;;;-1.11;74.91
76998;BME280;65930;48.874;10.734;2023-03-04T04:29:23;96324.22;;;-1.28;75.56
76998;BME280;65930;48.874;10.734;2023-03-04T04:31:51;96313.50;;;-1.33;75.62
76998;BME280;65930;48.874;10.734;2023-03-04T04:34:19;96321.00;;;-1.39;75.85
76998;BME280;65930;48.874;10.734;2023-03-04T04:36:47;96335.56;;;-1.26;75.39
76998;BME280;65930;48.874;10.734;2023-03-04T04:39:19;96324.66;;;-1.60;76.50
76998;BME280;65930;48.874;10.734;2023-03-04T04:41:48;96329.59;;;-1.62;77.24
76998;BME280;65930;48.874;10.734;2023-03-04T04:44:16;96331.84;;;-1.64;76.63
76998;BME280;65930;48.874;10.734;2023-03-04T04:46:44;96351.16;;;-1.57;76.74
76998;BME280;65930;48.874;10.734;2023-03-04T04:49:15;96352.94;;;-1.53;76.78
76998;BME280;65930;48.874;10.734;2023-03-04T04:51:44;96347.06;;;-1.46;77.04
76998;BME280;65930;48.874;10.734;2023-03-04T04:54:13;96339.38;;;-1.44;76.82
76998;BME280;65930;48.874;10.734;2023-03-04T04:56:43;96337.16;;;-1.42;76.35
76998;BME280;65930;48.874;10.734;2023-03-04T04:59:11;96333.31;;;-1.50;75.21
76998;BME280;65930;48.874;10.734;2023-03-04T05:01:40;96345.94;;;-1.45;75.81
76998;BME280;65930;48.874;10.734;2023-03-04T05:04:09;96326.56;;;-1.52;75.88
76998;BME280;65930;48.874;10.734;2023-03-04T05:06:37;96349.78;;;-1.38;76.10
76998;BME280;65930;48.874;10.734;2023-03-04T05:09:08;96332.50;;;-1.50;75.78
76998;BME280;65930;48.874;10.734;2023-03-04T05:11:36;96340.19;;;-1.44;76.28
76998;BME280;65930;48.874;10.734;2023-03-04T05:14:08;96334.41;;;-1.51;76.05
76998;BME280;65930;48.874;10.734;2023-03-04T05:16:38;96352.00;;;-1.48;77.62
76998;BME280;65930;48.874;10.734;2023-03-04T05:19:06;96343.38;;;-1.50;77.50
76998;BME280;65930;48.874;10.734;2023-03-04T05:21:35;96356.97;;;-1.50;77.82
76998;BME280;65930;48.874;10.734;2023-03-04T05:24:03;96337.06;;;-1.68;77.09
76998;BME280;65930;48.874;10.734;2023-03-04T05:26:31;96328.94;;;-1.68;76.64
76998;BME280;65930;48.874;10.734;2023-03-04T05:28:59;96365.09;;;-1.59;76.73
76998;BME280;65930;48.874;10.734;2023-03-04T05:31:30;96354.78;;;-1.79;77.49
76998;BME280;65930;48.874;10.734;2023-03-04T05:34:01;96368.06;;;-1.77;77.66
76998;BME280;65930;48.874;10.734;2023-03-04T05:36:29;96336.94;;;-2.11;79.29
76998;BME280;65930;48.874;10.734;2023-03-04T05:38:57;96338.88;;;-2.03;78.88
76998;BME280;65930;48.874;10.734;2023-03-04T05:41:25;96359.53;;;-1.93;78.51
76998;BME280;65930;48.874;10.734;2023-03-04T05:43:53;96339.84;;;-1.99;78.39
76998;BME280;65930;48.874;10.734;2023-03-04T05:46:22;96344.03;;;-1.93;77.69
76998;BME280;65930;48.874;10.734;2023-03-04T05:48:53;96362.44;;;-1.81;77.23
76998;BME280;65930;48.874;10.734;2023-03-04T05:51:22;96361.69;;;-1.73;76.11
76998;BME280;65930;48.874;10.734;2023-03-04T05:53:50;96352.75;;;-1.73;76.40
76998;BME280;65930;48.874;10.734;2023-03-04T05:56:19;96357.97;;;-1.77;75.58
76998;BME280;65930;48.874;10.734;2023-03-04T05:58:48;96354.44;;;-1.86;76.00
76998;BME280;65930;48.874;10.734;2023-03-04T06:01:16;96360.69;;;-1.77;75.63
76998;BME280;65930;48.874;10.734;2023-03-04T06:03:44;96359.41;;;-1.80;75.46
76998;BME280;65930;48.874;10.734;2023-03-04T06:06:16;96366.19;;;-1.68;75.43
76998;BME280;65930;48.874;10.734;2023-03-04T06:08:44;96367.41;;;-1.74;75.23
76998;BME280;65930;48.874;10.734;2023-03-04T06:11:12;96341.78;;;-1.91;75.11
76998;BME280;65930;48.874;10.734;2023-03-04T06:13:40;96375.06;;;-1.77;75.45
76998;BME280;65930;48.874;10.734;2023-03-04T06:16:08;96351.25;;;-1.88;77.02
76998;BME280;65930;48.874;10.734;2023-03-04T06:18:37;96363.97;;;-2.28;78.29
76998;BME280;65930;48.874;10.734;2023-03-04T06:21:05;96364.22;;;-2.16;78.20
76998;BME280;65930;48.874;10.734;2023-03-04T06:23:34;96365.94;;;-2.20;78.38
76998;BME280;65930;48.874;10.734;2023-03-04T06:26:03;96381.34;;;-2.07;78.25
76998;BME280;65930;48.874;10.734;2023-03-04T06:28:34;96376.94;;;-2.25;78.29
76998;BME280;65930;48.874;10.734;2023-03-04T06:31:03;96388.19;;;-2.09;77.96
76998;BME280;65930;48.874;10.734;2023-03-04T06:33:31;96387.09;;;-2.31;78.92
76998;BME280;65930;48.874;10.734;2023-03-04T06:35:59;96394.41;;;-2.40;79.48
76998;BME280;65930;48.874;10.734;2023-03-04T06:38:27;96415.66;;;-2.33;80.11
76998;BME280;65930;48.874;10.734;2023-03-04T06:41:05;96406.41;;;-2.32;80.52
76998;BME280;65930;48.874;10.734;2023-03-04T06:43:33;96416.53;;;-2.24;80.96
76998;BME280;65930;48.874;10.734;2023-03-04T06:46:01;96411.09;;;-2.24;81.44
76998;BME280;65930;48.874;10.734;2023-03-04T06:48:29;96418.63;;;-2.21;81.15
76998;BME280;65930;48.874;10.734;2023-03-04T06:50:57;96422.00;;;-2.15;81.85
76998;BME280;65930;48.874;10.734;2023-03-04T06:53:26;96424.28;;;-2.31;83.55
76998;BME280;65930;48.874;10.734;2023-03-04T06:55:54;96431.56;;;-2.18;83.33
76998;BME280;65930;48.874;10.734;2023-03-04T06:58:24;96424.38;;;-2.14;83.12
76998;BME280;65930;48.874;10.734;2023-03-04T07:00:52;96429.38;;;-2.07;83.15
76998;BME280;65930;48.874;10.734;2023-03-04T07:03:20;96425.25;;;-2.05;83.42
76998;BME280;65930;48.874;10.734;2023-03-04T07:05:49;96432.94;;;-2.29;84.12
76998;BME280;65930;48.874;10.734;2023-03-04T07:08:16;96438.38;;;-2.29;84.69
76998;BME280;65930;48.874;10.734;2023-03-04T07:10:48;96440.81;;;-2.41;85.09
76998;BME280;65930;48.874;10.734;2023-03-04T07:13:16;96434.16;;;-2.35;85.12
76998;BME280;65930;48.874;10.734;2023-03-04T07:15:45;96438.97;;;-2.32;84.47
76998;BME280;65930;48.874;10.734;2023-03-04T07:18:13;96444.78;;;-2.25;84.19
76998;BME280;65930;48.874;10.734;2023-03-04T07:20:41;96437.91;;;-2.23;84.70
76998;BME280;65930;48.874;10.734;2023-03-04T07:23:09;96445.44;;;-2.42;84.66
76998;BME280;65930;48.874;10.734;2023-03-04T07:25:36;96454.94;;;-2.53;85.42
76998;BME280;65930;48.874;10.734;2023-03-04T07:28:04;96451.53;;;-2.58;85.62
76998;BME280;65930;48.874;10.734;2023-03-04T07:30:32;96458.81;;;-2.45;86.02
76998;BME280;65930;48.874;10.734;2023-03-04T07:33:02;96465.34;;;-2.46;85.36
76998;BME280;65930;48.874;10.734;2023-03-04T07:35:30;96462.91;;;-2.34;85.16
76998;BME280;65930;48.874;10.734;2023-03-04T07:37:58;96464.06;;;-2.49;85.60
76998;BME280;65930;48.874;10.734;2023-03-04T07:40:25;96465.72;;;-2.39;85.39
76998;BME280;65930;48.874;10.734;2023-03-04T07:42:54;96470.13;;;-2.30;85.66
76998;BME280;65930;48.874;10.734;2023-03-04T07:45:23;96479.22;;;-2.48;86.39
76998;BME280;65930;48.874;10.734;2023-03-04T07:47:51;96473.00;;;-2.48;86.36
76998;BME280;65930;48.874;10.734;2023-03-04T07:50:21;96471.69;;;-2.51;86.22
76998;BME280;65930;48.874;10.734;2023-03-04T07:52:49;96471.56;;;-2.46;86.03
76998;BME280;65930;48.874;10.734;2023-03-04T07:55:17;96473.63;;;-2.29;86.05
76998;BME280;65930;48.874;10.734;2023-03-04T07:57:46;96472.25;;;-2.18;85.34
76998;BME280;65930;48.874;10.734;2023-03-04T08:00:16;96478.44;;;-2.26;85.35
76998;BME280;65930;48.874;10.734;2023-03-04T08:02:44;96475.09;;;-2.23;84.81
76998;BME280;65930;48.874;10.734;2023-03-04T08:05:12;96485.53;;;-2.16;84.81
76998;BME280;65930;48.874;10.734;2023-03-04T08:07:41;96500.03;;;-2.21;86.19
76998;BME280;65930;48.874;10.734;2023-03-04T08:10:10;96486.19;;;-2.33;86.32
76998;BME280;65930;48.874;10.734;2023-03-04T08:12:38;96498.00;;;-2.51;87.31
76998;BME280;65930;48.874;10.734;2023-03-04T08:15:07;96490.88;;;-2.47;86.63
76998;BME280;65930;48.874;10.734;2023-03-04T08:17:35;96484.44;;;-2.51;87.35
76998;BME280;65930;48.874;10.734;2023-03-04T08:20:03;96487.44;;;-2.39;86.81
76998;BME280;65930;48.874;10.734;2023-03-04T08:22:31;96492.88;;;-2.39;87.60
76998;BME280;65930;48.874;10.734;2023-03-04T08:25:00;96500.03;;;-2.21;86.68
76998;BME280;65930;48.874;10.734;2023-03-04T08:27:28;96495.75;;;-2.36;86.91
76998;BME280;65930;48.874;10.734;2023-03-04T08:29:56;96500.50;;;-2.41;87.28
76998;BME280;65930;48.874;10.734;2023-03-04T08:32:24;96500.59;;;-2.46;88.14
76998;BME280;65930;48.874;10.734;2023-03-04T08:34:52;96498.19;;;-2.34;87.56
76998;BME280;65930;48.874;10.734;2023-03-04T08:37:21;96500.66;;;-2.24;87.12
76998;BME280;65930;48.874;10.734;2023-03-04T08:39:49;96493.97;;;-2.18;85.81
76998;BME280;65930;48.874;10.734;2023-03-04T08:42:19;96499.41;;;-2.18;86.10
76998;BME280;65930;48.874;10.734;2023-03-04T08:44:47;96500.59;;;-2.10;86.01
76998;BME280;65930;48.874;10.734;2023-03-04T08:47:15;96494.28;;;-1.97;85.79
76998;BME280;65930;48.874;10.734;2023-03-04T08:49:43;96492.03;;;-1.95;85.04
76998;BME280;65930;48.874;10.734;2023-03-04T08:52:11;96499.53;;;-2.01;85.51
76998;BME280;65930;48.874;10.734;2023-03-04T08:54:39;96505.75;;;-2.00;85.78
76998;BME280;65930;48.874;10.734;2023-03-04T08:57:07;96500.41;;;-1.92;85.49
76998;BME280;65930;48.874;10.734;2023-03-04T08:59:36;96501.38;;;-1.88;85.37
76998;BME280;65930;48.874;10.734;2023-03-04T09:02:04;96506.81;;;-1.88;84.33
76998;BME280;65930;48.874;10.734;2023-03-04T09:04:32;96498.91;;;-1.98;85.52
76998;BME280;65930;48.874;10.734;2023-03-04T09:07:00;96513.13;;;-2.01;85.74
76998;BME280;65930;48.874;10.734;2023-03-04T09:09:28;96493.78;;;-1.99;85.32
76998;BME280;65930;48.874;10.734;2023-03-04T09:11:56;96495.50;;;-2.03;85.54
76998;BME280;65930;48.874;10.734;2023-03-04T09:14:24;96499.38;;;-1.96;86.03
76998;BME280;65930;48.874;10.734;2023-03-04T09:16:53;96498.47;;;-1.91;85.96
76998;BME280;65930;48.874;10.734;2023-03-04T09:19:21;96500.50;;;-1.74;85.73
76998;BME280;65930;48.874;10.734;2023-03-04T09:21:49;96494.56;;;-1.77;85.23
76998;BME280;65930;48.874;10.734;2023-03-04T09:24:17;96490.59;;;-1.70;84.94
76998;BME280;65930;48.874;10.734;2023-03-04T09:26:49;96493.44;;;-1.75;85.50
76998;BME280;65930;48.874;10.734;2023-03-04T09:29:17;96483.53;;;-1.80;85.39
76998;BME280;65930;48.874;10.734;2023-03-04T09:31:45;96490.31;;;-1.69;85.37
76998;BME280;65930;48.874;10.734;2023-03-04T09:34:14;96482.75;;;-1.72;84.73
76998;BME280;65930;48.874;10.734;2023-03-04T09:36:43;96484.50;;;-1.76;85.02
76998;BME280;65930;48.874;10.734;2023-03-04T09:39:11;96475.25;;;-1.75;84.18
76998;BME280;65930;48.874;10.734;2023-03-04T09:41:42;96470.50;;;-1.69;83.77
76998;BME280;65930;48.874;10.734;2023-03-04T09:44:21;96471.09;;;-1.72;83.87
76998;BME280;65930;48.874;10.734;2023-03-04T09:46:51;96496.84;;;-1.70;85.10
76998;BME280;65930;48.874;10.734;2023-03-04T09:49:21;96504.19;;;-1.70;84.10
76998;BME280;65930;48.874;10.734;2023-03-04T09:51:55;96508.47;;;-1.78;85.33
76998;BME280;65930;48.874;10.734;2023-03-04T09:54:39;96505.16;;;-1.66;84.89
76998;BME280;65930;48.874;10.734;2023-03-04T09:57:24;96516.66;;;-1.69;85.00
76998;BME280;65930;48.874;10.734;2023-03-04T10:00:04;96506.19;;;-1.54;85.18
76998;BME280;65930;48.874;10.734;2023-03-04T10:02:43;96514.78;;;-1.60;84.27
76998;BME280;65930;48.874;10.734;2023-03-04T10:05:19;96505.44;;;-1.46;84.12
76998;BME280;65930;48.874;10.734;2023-03-04T10:07:55;96504.72;;;-1.29;84.02
76998;BME280;65930;48.874;10.734;2023-03-04T10:10:30;96495.88;;;-1.35;83.76
76998;BME280;65930;48.874;10.734;2023-03-04T10:13:02;96512.03;;;-1.38;83.22
76998;BME280;65930;48.874;10.734;2023-03-04T10:15:37;96507.44;;;-1.29;83.47
76998;BME280;65930;48.874;10.734;2023-03-04T10:18:15;96492.88;;;-1.33;83.77
76998;BME280;65930;48.874;10.734;2023-03-04T10:20:53;96498.34;;;-1.16;83.50
76998;BME280;65930;48.874;10.734;2023-03-04T10:23:24;96498.88;;;-1.05;82.75
76998;BME280;65930;48.874;10.734;2023-03-04T10:25:53;96500.94;;;-1.11;82.55
76998;BME280;65930;48.874;10.734;2023-03-04T10:28:24;96498.72;;;-1.09;82.91
76998;BME280;65930;48.874;10.734;2023-03-04T10:30:58;96494.56;;;-1.06;81.66
76998;BME280;65930;48.874;10.734;2023-03-04T10:33:30;96491.03;;;-1.07;81.64
76998;BME280;65930;48.874;10.734;2023-03-04T10:36:05;96500.81;;;-0.97;81.35
76998;BME280;65930;48.874;10.734;2023-03-04T10:38:41;96494.41;;;-1.01;80.97
76998;BME280;65930;48.874;10.734;2023-03-04T10:41:14;96495.34;;;-1.06;80.68
76998;BME280;65930;48.874;10.734;2023-03-04T10:43:49;96499.03;;;-1.02;81.57
76998;BME280;65930;48.874;10.734;2023-03-04T10:46:19;96499.25;;;-0.98;80.65
76998;BME280;65930;48.874;10.734;2023-03-04T10:48:52;96495.72;;;-0.90;81.43
76998;BME280;65930;48.874;10.734;2023-03-04T10:51:23;96490.94;;;-0.84;80.71
76998;BME280;65930;48.874;10.734;2023-03-04T10:53:56;96492.06;;;-0.85;80.83
76998;BME280;65930;48.874;10.734;2023-03-04T10:56:31;96490.97;;;-0.76;80.91
76998;BME280;65930;48.874;10.734;2023-03-04T10:59:24;96500.38;;;-0.82;81.01
76998;BME280;65930;48.874;10.734;2023-03-04T11:01:57;96489.66;;;-0.87;80.71
76998;BME280;65930;48.874;10.734;2023-03-04T11:04:31;96485.66;;;-0.90;80.92
76998;BME280;65930;48.874;10.734;2023-03-04T11:07:01;96481.19;;;-0.85;81.18
76998;BME280;65930;48.874;10.734;2023-03-04T11:09:30;96479.75;;;-0.74;80.80
76998;BME280;65930;48.874;10.734;2023-03-04T11:11:59;96477.38;;;-0.59;80.50
76998;BME280;65930;48.874;10.734;2023-03-04T11:14:35;96479.13;;;-0.63;79.13
76998;BME280;65930;48.874;10.734;2023-03-04T11:17:21;96478.97;;;-0.66;80.27
76998;BME280;65930;48.874;10.734;2023-03-04T11:19:56;96475.16;;;-0.57;79.75
76998;BME280;65930;48.874;10.734;2023-03-04T11:22:28;96479.63;;;-0.52;78.88
76998;BME280;65930;48.874;10.734;2023-03-04T11:25:02;96466.19;;;-0.40;77.94
76998;BME280;65930;48.874;10.734;2023-03-04T11:27:41;96468.41;;;-0.51;76.94
76998;BME280;65930;48.874;10.734;2023-03-04T11:30:23;96458.66;;;-0.52;76.78
76998;BME280;65930;48.874;10.734;2023-03-04T11:33:04;96461.69;;;-0.53;75.81
76998;BME280;65930;48.874;10.734;2023-03-04T11:35:44;96467.28;;;-0.58;76.13
76998;BME280;65930;48.874;10.734;2023-03-04T11:38:18;96459.94;;;-0.49;76.10
76998;BME280;65930;48.874;10.734;2023-03-04T11:40:52;96459.13;;;-0.50;75.73
76998;BME280;65930;48.874;10.734;2023-03-04T11:43:26;96456.25;;;-0.53;76.40
76998;BME280;65930;48.874;10.734;2023-03-04T11:49:13;96454.00;;;-0.51;76.15
76998;BME280;65930;48.874;10.734;2023-03-04T11:51:55;96453.03;;;-0.55;76.29
76998;BME280;65930;48.874;10.734;2023-03-04T11:54:38;96448.91;;;-0.61;76.25
76998;BME280;65930;48.874;10.734;2023-03-04T11:57:24;96447.28;;;-0.45;76.06
76998;BME280;65930;48.874;10.734;2023-03-04T12:03:03;96450.00;;;-0.45;75.59
76998;BME280;65930;48.874;10.734;2023-03-04T12:05:48;96428.72;;;-0.52;74.77
76998;BME280;65930;48.874;10.734;2023-03-04T12:08:35;96436.56;;;-0.50;75.06
76998;BME280;65930;48.874;10.734;2023-03-04T12:11:17;96431.09;;;-0.41;75.52
76998;BME280;65930;48.874;10.734;2023-03-04T12:14:14;96426.16;;;-0.39;75.39
76998;BME280;65930;48.874;10.734;2023-03-04T12:17:03;96427.91;;;-0.26;75.27
76998;BME280;65930;48.874;10.734;2023-03-04T12:19:49;96429.03;;;-0.36;75.68
76998;BME280;65930;48.874;10.734;2023-03-04T12:22:29;96414.78;;;-0.33;75.25
76998;BME280;65930;48.874;10.734;2023-03-04T12:25:23;96406.28;;;-0.23;75.77
76998;BME280;65930;48.874;10.734;2023-03-04T12:31:18;96413.34;;;-0.39;75.81
76998;BME280;65930;48.874;10.734;2023-03-04T12:36:59;96406.78;;;-0.47;76.32
76998;BME280;65930;48.874;10.734;2023-03-04T12:39:33;96403.75;;;-0.45;75.55
76998;BME280;65930;48.874;10.734;2023-03-04T12:42:17;96392.41;;;-0.47;76.36
76998;BME280;65930;48.874;10.734;2023-03-04T12:44:58;96392.38;;;-0.30;75.51
76998;BME280;65930;48.874;10.734;2023-03-04T12:47:38;96391.06;;;-0.32;75.43
76998;BME280;65930;48.874;10.734;2023-03-04T12:50:29;96379.88;;;-0.31;75.67
76998;BME280;65930;48.874;10.734;2023-03-04T12:53:11;96389.00;;;-0.27;75.38
76998;BME280;65930;48.874;10.734;2023-03-04T12:55:43;96383.41;;;-0.39;75.50
76998;BME280;65930;48.874;10.734;2023-03-04T12:58:16;96385.81;;;-0.46;76.65
76998;BME280;65930;48.874;10.734;2023-03-04T13:00:58;96377.81;;;-0.42;75.95
76998;BME280;65930;48.874;10.734;2023-03-04T13:03:39;96385.34;;;-0.39;75.37
76998;BME280;65930;48.874;10.734;2023-03-04T13:06:22;96389.84;;;-0.52;75.70
76998;BME280;65930;48.874;10.734;2023-03-04T13:09:00;96389.50;;;-0.59;75.79
76998;BME280;65930;48.874;10.734;2023-03-04T13:11:43;96397.81;;;-0.56;74.88
76998;BME280;65930;48.874;10.734;2023-03-04T13:14:25;96392.38;;;-0.56;73.88
76998;BME280;65930;48.874;10.734;2023-03-04T13:16:57;96381.97;;;-0.54;73.86
76998;BME280;65930;48.874;10.734;2023-03-04T13:19:48;96384.22;;;-0.56;74.38
76998;BME280;65930;48.874;10.734;2023-03-04T13:22:41;96378.00;;;-0.56;74.10
76998;BME280;65930;48.874;10.734;2023-03-04T13:25:33;96386.63;;;-0.63;73.98